createdAt,value
2018-06-03T00:00:06.454Z,20.30
2018-06-03T00:02:34.679Z,20.20
2018-06-03T00:05:04.776Z,20.20
2018-06-03T00:07:32.998Z,20.30
2018-06-03T00:10:02.650Z,20.30
2018-06-03T00:12:30.936Z,20.30
2018-06-03T00:15:01.523Z,20.30
2018-06-03T00:17:29.753Z,20.40
2018-06-03T00:19:58.083Z,20.40
2018-06-03T00:22:32.351Z,20.40
2018-06-03T00:25:01.236Z,20.40
2018-06-03T00:27:29.443Z,20.40
2018-06-03T00:29:57.660Z,20.40
2018-06-03T00:32:26.699Z,20.40
2018-06-03T00:34:54.878Z,20.40
2018-06-03T00:37:23.196Z,20.30
2018-06-03T00:39:52.569Z,20.30
2018-06-03T00:42:20.805Z,20.30
2018-06-03T00:44:49.006Z,20.20
2018-06-03T00:47:18.273Z,20.20
2018-06-03T00:49:46.867Z,20.10
2018-06-03T00:52:15.069Z,20.10
2018-06-03T00:54:43.866Z,20.00
2018-06-03T00:57:12.222Z,20.00
2018-06-03T00:59:40.417Z,19.90
2018-06-03T01:02:09.270Z,19.90
2018-06-03T01:04:37.463Z,19.90
2018-06-03T01:07:05.830Z,19.80
2018-06-03T01:09:34.126Z,19.80
2018-06-03T01:12:02.323Z,19.80
2018-06-03T01:14:30.538Z,19.70
2018-06-03T01:16:58.828Z,19.70
2018-06-03T01:19:27.086Z,19.70
2018-06-03T01:21:56.023Z,19.70
2018-06-03T01:24:24.333Z,19.70
2018-06-03T01:26:52.628Z,19.70
2018-06-03T01:29:20.817Z,19.80
2018-06-03T01:31:49.037Z,19.80
2018-06-03T01:34:17.258Z,19.80
2018-06-03T01:36:45.472Z,19.70
2018-06-03T01:39:14.097Z,19.70
2018-06-03T01:41:43.074Z,19.70
2018-06-03T01:44:11.923Z,19.70
2018-06-03T01:46:40.142Z,19.60
2018-06-03T01:49:08.361Z,19.60
2018-06-03T01:51:37.323Z,19.50
2018-06-03T01:54:05.560Z,19.50
2018-06-03T01:56:33.864Z,19.40
2018-06-03T01:59:02.264Z,19.40
2018-06-03T02:01:31.414Z,19.30
2018-06-03T02:03:59.754Z,19.30
2018-06-03T02:06:28.021Z,19.20
2018-06-03T02:08:56.252Z,19.20
2018-06-03T02:11:24.491Z,19.10
2018-06-03T02:13:53.618Z,19.10
2018-06-03T02:16:21.877Z,19.10
2018-06-03T02:18:50.081Z,19.00
2018-06-03T02:21:18.345Z,19.00
2018-06-03T02:23:46.819Z,18.90
2018-06-03T02:26:15.005Z,18.90
2018-06-03T02:28:43.579Z,18.90
2018-06-03T02:31:11.857Z,18.80
2018-06-03T02:33:40.130Z,18.80
2018-06-03T02:36:08.386Z,18.70
2018-06-03T02:38:36.786Z,18.70
2018-06-03T02:41:05.030Z,18.60
2018-06-03T02:43:33.237Z,18.60
2018-06-03T02:46:01.475Z,18.60
2018-06-03T02:48:30.571Z,18.50
2018-06-03T02:50:59.811Z,18.50
2018-06-03T02:53:28.047Z,18.40
2018-06-03T02:55:56.291Z,18.40
2018-06-03T02:58:25.352Z,18.40
2018-06-03T03:00:53.588Z,18.40
2018-06-03T03:03:21.819Z,18.40
2018-06-03T03:05:50.450Z,18.30
2018-06-03T03:08:19.423Z,18.30
2018-06-03T03:10:48.195Z,18.30
2018-06-03T03:13:16.498Z,18.20
2018-06-03T03:15:46.113Z,18.20
2018-06-03T03:18:15.070Z,18.20
2018-06-03T03:20:43.269Z,18.20
2018-06-03T03:23:11.491Z,18.10
2018-06-03T03:25:39.730Z,18.10
2018-06-03T03:28:07.946Z,18.10
2018-06-03T03:30:36.184Z,18.10
2018-06-03T03:33:06.318Z,18.00
2018-06-03T03:35:34.598Z,18.00
2018-06-03T03:38:02.844Z,18.00
2018-06-03T03:40:31.072Z,18.00
2018-06-03T03:42:59.294Z,18.00
2018-06-03T03:45:27.576Z,18.00
2018-06-03T03:47:55.792Z,17.90
2018-06-03T03:50:24.043Z,17.90
2018-06-03T03:52:53.173Z,17.90
2018-06-03T03:55:21.464Z,17.90
2018-06-03T03:57:49.727Z,17.90
2018-06-03T04:00:18.854Z,17.90
2018-06-03T04:02:48.135Z,17.80
2018-06-03T04:05:16.400Z,17.80
2018-06-03T04:07:44.682Z,17.80
2018-06-03T04:10:12.907Z,17.80
2018-06-03T04:12:41.952Z,17.80
2018-06-03T04:15:10.173Z,17.80
2018-06-03T04:18:14.685Z,17.80
2018-06-03T04:20:46.673Z,17.80
2018-06-03T04:23:16.856Z,17.80
2018-06-03T04:25:47.019Z,17.80
2018-06-03T04:28:17.501Z,17.80
2018-06-03T04:30:47.795Z,17.80
2018-06-03T04:33:19.365Z,17.90
2018-06-03T04:35:49.442Z,17.90
2018-06-03T04:38:19.896Z,17.90
2018-06-03T04:40:50.136Z,17.90
2018-06-03T04:43:20.778Z,17.90
2018-06-03T04:45:51.666Z,18.00
2018-06-03T04:48:21.838Z,18.00
2018-06-03T04:50:52.123Z,18.00
2018-06-03T04:53:22.450Z,18.10
2018-06-03T04:55:53.118Z,18.10
2018-06-03T04:58:23.189Z,18.10
2018-06-03T05:00:53.942Z,18.20
2018-06-03T05:03:24.510Z,18.20
2018-06-03T05:05:55.940Z,18.30
2018-06-03T05:08:26.337Z,18.30
2018-06-03T05:10:56.663Z,18.30
2018-06-03T05:13:26.847Z,18.30
2018-06-03T05:15:57.314Z,18.40
2018-06-03T05:18:27.780Z,18.40
2018-06-03T05:21:00.062Z,18.50
2018-06-03T05:23:30.280Z,18.50
2018-06-03T05:26:00.887Z,18.50
2018-06-03T05:28:32.014Z,18.60
2018-06-03T05:31:02.904Z,18.60
2018-06-03T05:33:33.744Z,18.60
2018-06-03T05:36:05.162Z,18.60
2018-06-03T05:38:35.440Z,18.60
2018-06-03T05:41:05.598Z,18.70
2018-06-03T05:43:35.890Z,18.80
2018-06-03T05:46:06.225Z,18.80
2018-06-03T05:48:36.863Z,18.90
2018-06-03T05:51:06.870Z,18.90
2018-06-03T05:53:37.443Z,19.00
2018-06-03T05:56:07.664Z,19.10
2018-06-03T05:58:37.902Z,19.10
2018-06-03T06:01:07.996Z,19.10
2018-06-03T06:03:38.705Z,19.20
2018-06-03T06:06:10.026Z,19.30
2018-06-03T06:08:40.415Z,19.40
2018-06-03T06:11:10.680Z,19.60
2018-06-03T06:13:41.003Z,19.60
2018-06-03T06:16:11.197Z,19.70
2018-06-03T06:18:41.842Z,19.80
2018-06-03T06:21:11.998Z,19.80
2018-06-03T06:23:42.658Z,19.90
2018-06-03T06:26:12.880Z,19.90
2018-06-03T06:28:44.024Z,19.90
2018-06-03T06:31:16.823Z,20.00
2018-06-03T06:33:47.183Z,20.00
2018-06-03T06:36:18.585Z,20.00
2018-06-03T06:38:48.878Z,20.10
2018-06-03T06:41:19.248Z,20.10
2018-06-03T06:43:49.801Z,20.10
2018-06-03T06:46:20.007Z,20.10
2018-06-03T06:48:50.966Z,20.10
2018-06-03T06:51:21.731Z,20.20
2018-06-03T06:53:52.209Z,20.20
2018-06-03T06:56:23.306Z,20.20
2018-06-03T06:58:54.127Z,20.30
2018-06-03T07:01:24.120Z,20.30
2018-06-03T07:03:54.477Z,20.40
2018-06-03T07:06:24.656Z,20.50
2018-06-03T07:08:55.572Z,20.30
2018-06-03T07:11:27.164Z,20.60
2018-06-03T07:13:57.323Z,20.70
2018-06-03T07:16:28.108Z,20.70
2018-06-03T07:18:59.464Z,20.70
2018-06-03T07:21:29.556Z,20.80
2018-06-03T07:24:00.287Z,20.90
2018-06-03T07:26:30.337Z,20.90
2018-06-03T07:29:00.676Z,21.00
2018-06-03T07:31:32.259Z,21.10
2018-06-03T07:34:03.206Z,21.20
2018-06-03T07:36:34.032Z,21.30
2018-06-03T07:39:06.925Z,21.40
2018-06-03T07:41:37.521Z,21.50
2018-06-03T07:44:08.694Z,21.60
2018-06-03T07:46:39.837Z,21.70
2018-06-03T07:49:10.299Z,21.70
2018-06-03T07:51:41.243Z,21.80
2018-06-03T07:54:11.677Z,21.80
2018-06-03T07:56:44.691Z,21.90
2018-06-03T07:59:15.021Z,22.00
2018-06-03T08:01:45.439Z,22.10
2018-06-03T08:04:16.133Z,22.20
2018-06-03T08:06:47.920Z,22.40
2018-06-03T08:09:19.728Z,22.60
2018-06-03T08:11:50.224Z,22.70
2018-06-03T08:14:20.065Z,22.80
2018-06-03T08:16:50.744Z,22.90
2018-06-03T08:19:29.475Z,23.00
2018-06-03T08:22:00.834Z,23.00
2018-06-03T08:24:32.739Z,23.10
2018-06-03T08:27:04.567Z,23.10
2018-06-03T08:29:36.618Z,23.10
2018-06-03T08:32:07.742Z,23.20
2018-06-03T08:34:38.245Z,23.20
2018-06-03T08:37:08.579Z,23.30
2018-06-03T08:39:39.110Z,23.30
2018-06-03T08:42:11.967Z,23.30
2018-06-03T08:44:44.725Z,23.30
2018-06-03T08:47:15.427Z,23.30
2018-06-03T08:49:46.896Z,23.40
2018-06-03T08:52:17.367Z,23.50
2018-06-03T08:54:48.188Z,23.50
2018-06-03T08:57:19.244Z,23.60
2018-06-03T08:59:51.295Z,23.60
2018-06-03T09:02:23.446Z,23.80
2018-06-03T09:04:54.838Z,23.90
2018-06-03T09:07:25.380Z,24.10
2018-06-03T09:09:57.819Z,24.30
2018-06-03T09:12:28.859Z,24.50
2018-06-03T09:14:59.418Z,24.60
2018-06-03T09:17:30.059Z,24.80
2018-06-03T09:20:00.525Z,24.90
2018-06-03T09:22:30.572Z,24.90
2018-06-03T09:25:01.062Z,25.00
2018-06-03T09:27:32.064Z,25.00
2018-06-03T09:30:03.625Z,25.10
2018-06-03T09:32:34.919Z,25.20
2018-06-03T09:35:05.139Z,25.30
2018-06-03T09:37:36.407Z,25.40
2018-06-03T09:40:06.655Z,25.40
2018-06-03T09:42:37.579Z,25.40
2018-06-03T09:45:11.809Z,25.40
2018-06-03T09:47:43.948Z,25.50
2018-06-03T09:50:14.511Z,25.50
2018-06-03T09:52:45.269Z,25.50
2018-06-03T09:55:16.248Z,25.60
2018-06-03T09:57:46.633Z,25.60
2018-06-03T10:00:17.523Z,25.50
2018-06-03T10:02:47.607Z,25.50
2018-06-03T10:05:19.335Z,25.50
2018-06-03T10:07:49.488Z,25.50
2018-06-03T10:10:19.952Z,25.50
2018-06-03T10:12:50.660Z,25.50
2018-06-03T10:15:21.037Z,25.60
2018-06-03T10:17:51.530Z,25.60
2018-06-03T10:20:21.890Z,25.70
2018-06-03T10:22:52.363Z,25.80
2018-06-03T10:25:23.324Z,25.90
2018-06-03T10:27:54.094Z,26.00
2018-06-03T10:30:26.330Z,26.10
2018-06-03T10:32:57.173Z,26.40
2018-06-03T10:35:28.449Z,26.50
2018-06-03T10:38:01.234Z,26.70
2018-06-03T10:40:32.250Z,26.90
2018-06-03T10:43:02.222Z,27.10
2018-06-03T10:45:32.527Z,27.30
2018-06-03T10:48:02.808Z,27.50
2018-06-03T10:50:34.590Z,27.60
2018-06-03T10:53:05.635Z,27.70
2018-06-03T10:55:36.187Z,27.80
2018-06-03T10:58:07.682Z,27.80
2018-06-03T11:00:38.489Z,27.90
2018-06-03T11:03:09.330Z,28.00
2018-06-03T11:05:39.665Z,28.00
2018-06-03T11:08:10.876Z,28.10
2018-06-03T11:10:41.669Z,28.10
2018-06-03T11:13:12.609Z,28.10
2018-06-03T11:15:43.232Z,28.10
2018-06-03T11:18:13.384Z,27.90
2018-06-03T11:20:43.675Z,27.80
2018-06-03T11:23:13.860Z,27.80
2018-06-03T11:25:44.054Z,27.70
2018-06-03T11:28:15.533Z,27.80
2018-06-03T11:30:47.533Z,27.90
2018-06-03T11:33:18.358Z,27.80
2018-06-03T11:35:48.866Z,27.80
2018-06-03T11:38:19.950Z,27.90
2018-06-03T11:40:50.541Z,28.00
2018-06-03T11:43:20.939Z,28.10
2018-06-03T11:45:51.456Z,28.30
2018-06-03T11:48:21.809Z,28.40
2018-06-03T11:50:53.878Z,28.50
2018-06-03T11:53:25.486Z,28.70
2018-06-03T11:55:58.214Z,29.00
2018-06-03T11:58:56.624Z,29.20
2018-06-03T12:01:28.154Z,29.50
2018-06-03T12:03:59.113Z,29.70
2018-06-03T12:06:30.890Z,29.90
2018-06-03T12:09:02.661Z,30.00
2018-06-03T12:11:35.371Z,30.00
2018-06-03T12:14:05.968Z,30.00
2018-06-03T12:16:37.774Z,30.00
2018-06-03T12:19:09.060Z,30.00
2018-06-03T12:21:41.087Z,30.10
2018-06-03T12:24:14.993Z,30.20
2018-06-03T12:26:48.391Z,30.30
2018-06-03T12:29:21.458Z,30.40
2018-06-03T12:31:52.522Z,30.50
2018-06-03T12:34:25.670Z,30.50
2018-06-03T12:36:56.724Z,30.50
2018-06-03T12:39:27.573Z,30.60
2018-06-03T12:41:58.999Z,30.80
2018-06-03T12:44:30.989Z,31.00
2018-06-03T12:47:02.898Z,31.10
2018-06-03T12:49:33.807Z,31.10
2018-06-03T12:52:05.282Z,31.10
2018-06-03T12:54:36.946Z,31.00
2018-06-03T12:57:08.062Z,31.00
2018-06-03T12:59:39.009Z,31.10
2018-06-03T13:02:11.423Z,31.20
2018-06-03T13:04:41.653Z,31.40
2018-06-03T13:07:11.846Z,31.50
2018-06-03T13:09:45.149Z,31.70
2018-06-03T13:12:16.680Z,31.80
2018-06-03T13:14:48.729Z,32.00
2018-06-03T13:17:19.368Z,32.10
2018-06-03T13:19:49.640Z,32.20
2018-06-03T13:22:19.751Z,32.20
2018-06-03T13:24:50.027Z,32.20
2018-06-03T13:27:22.269Z,32.20
2018-06-03T13:29:54.373Z,32.10
2018-06-03T13:32:26.103Z,31.90
2018-06-03T13:34:58.318Z,31.80
2018-06-03T13:37:31.616Z,31.80
2018-06-03T13:40:02.989Z,31.70
2018-06-03T13:42:35.327Z,31.60
2018-06-03T13:45:07.013Z,31.60
2018-06-03T13:47:39.387Z,31.60
2018-06-03T13:50:10.019Z,31.60
2018-06-03T13:52:40.930Z,31.60
2018-06-03T13:55:13.509Z,31.70
2018-06-03T13:57:43.683Z,31.90
2018-06-03T14:00:14.238Z,32.00
2018-06-03T14:02:44.875Z,32.30
2018-06-03T14:05:15.683Z,32.50
2018-06-03T14:07:45.804Z,33.40
2018-06-03T14:10:19.147Z,34.80
2018-06-03T14:12:51.057Z,36.40
2018-06-03T14:15:23.171Z,38.00
2018-06-03T14:17:54.810Z,39.30
2018-06-03T14:20:25.587Z,39.80
2018-06-03T14:22:55.905Z,40.70
2018-06-03T14:25:26.348Z,40.50
2018-06-03T14:27:56.914Z,39.60
2018-06-03T14:30:27.445Z,39.00
2018-06-03T14:32:58.676Z,38.30
2018-06-03T14:35:32.058Z,37.50
2018-06-03T14:38:02.774Z,36.80
2018-06-03T14:40:33.684Z,36.10
2018-06-03T14:43:04.209Z,35.50
2018-06-03T14:45:34.692Z,35.10
2018-06-03T14:48:05.247Z,34.80
2018-06-03T14:50:37.950Z,35.60
2018-06-03T14:53:08.367Z,37.30
2018-06-03T14:55:38.453Z,39.00
2018-06-03T14:58:08.959Z,40.60
2018-06-03T15:00:38.925Z,42.10
2018-06-03T15:03:09.061Z,43.40
2018-06-03T15:05:39.501Z,44.50
2018-06-03T15:08:09.585Z,45.20
2018-06-03T15:10:39.717Z,45.80
2018-06-03T15:13:09.932Z,46.30
2018-06-03T15:15:40.414Z,46.80
2018-06-03T15:18:11.741Z,47.10
2018-06-03T15:20:42.460Z,47.30
2018-06-03T15:23:12.703Z,47.80
2018-06-03T15:25:43.981Z,48.40
2018-06-03T15:28:14.215Z,48.80
2018-06-03T15:30:44.695Z,49.40
2018-06-03T15:33:15.375Z,49.60
2018-06-03T15:35:45.501Z,49.50
2018-06-03T15:38:15.793Z,48.70
2018-06-03T15:40:45.767Z,48.60
2018-06-03T15:43:16.959Z,49.00
2018-06-03T15:45:47.411Z,49.40
2018-06-03T15:48:17.505Z,49.90
2018-06-03T15:50:48.717Z,50.20
2018-06-03T15:53:20.004Z,50.40
2018-06-03T15:55:50.435Z,50.50
2018-06-03T15:58:21.596Z,50.50
2018-06-03T16:00:53.873Z,50.30
2018-06-03T16:03:25.804Z,50.30
2018-06-03T16:05:56.170Z,50.40
2018-06-03T16:08:27.111Z,50.50
2018-06-03T16:10:58.003Z,50.70
2018-06-03T16:13:29.430Z,50.90
2018-06-03T16:16:00.963Z,51.10
2018-06-03T16:18:31.417Z,51.30
2018-06-03T16:21:01.698Z,51.40
2018-06-03T16:23:32.586Z,51.50
2018-06-03T16:26:03.321Z,51.30
2018-06-03T16:28:34.672Z,51.00
2018-06-03T16:31:05.395Z,50.40
2018-06-03T16:33:35.814Z,49.40
2018-06-03T16:36:06.520Z,48.20
2018-06-03T16:38:37.281Z,46.70
2018-06-03T16:41:07.431Z,45.60
2018-06-03T16:43:39.260Z,44.50
2018-06-03T16:46:09.566Z,43.30
2018-06-03T16:48:40.504Z,42.50
2018-06-03T16:51:11.362Z,42.90
2018-06-03T16:53:41.289Z,42.80
2018-06-03T16:56:11.603Z,42.30
2018-06-03T16:58:42.728Z,41.60
2018-06-03T17:01:12.977Z,41.00
2018-06-03T17:03:43.847Z,40.40
2018-06-03T17:06:14.888Z,40.10
2018-06-03T17:08:45.310Z,40.50
2018-06-03T17:11:17.803Z,41.00
2018-06-03T17:13:49.047Z,41.40
2018-06-03T17:16:21.460Z,41.90
2018-06-03T17:18:52.887Z,42.50
2018-06-03T17:21:23.365Z,43.10
2018-06-03T17:23:53.771Z,43.60
2018-06-03T17:26:26.533Z,44.10
2018-06-03T17:28:58.286Z,44.50
2018-06-03T17:31:28.669Z,44.90
2018-06-03T17:33:59.416Z,45.10
2018-06-03T17:36:29.538Z,45.40
2018-06-03T17:39:00.358Z,45.50
2018-06-03T17:41:30.764Z,45.60
2018-06-03T17:44:01.469Z,45.70
2018-06-03T17:46:31.664Z,45.80
2018-06-03T17:49:02.662Z,46.00
2018-06-03T17:51:33.311Z,46.10
2018-06-03T17:54:03.887Z,46.30
2018-06-03T17:56:35.653Z,46.30
2018-06-03T17:59:06.343Z,46.20
2018-06-03T18:01:36.803Z,46.10
2018-06-03T18:04:07.229Z,46.10
2018-06-03T18:06:38.314Z,46.10
2018-06-03T18:09:10.250Z,46.20
2018-06-03T18:11:43.844Z,46.20
2018-06-03T18:14:14.017Z,46.40
2018-06-03T18:16:44.147Z,46.40
2018-06-03T18:19:15.241Z,46.20
2018-06-03T18:21:47.341Z,46.00
2018-06-03T18:24:18.412Z,46.00
2018-06-03T18:29:51.367Z,45.80
2018-06-03T18:32:22.570Z,45.50
2018-06-03T18:34:53.533Z,45.20
2018-06-03T18:37:24.246Z,45.00
2018-06-03T18:39:54.870Z,44.80
2018-06-03T18:42:25.126Z,44.60
2018-06-03T18:44:55.853Z,44.20
2018-06-03T18:47:26.261Z,43.70
2018-06-03T18:49:56.482Z,43.40
2018-06-03T18:52:26.595Z,43.00
2018-06-03T18:54:57.078Z,42.40
2018-06-03T18:57:28.338Z,41.80
2018-06-03T18:59:58.516Z,41.40
2018-06-03T19:02:29.078Z,41.10
2018-06-03T19:04:59.291Z,40.70
2018-06-03T19:07:30.868Z,40.00
2018-06-03T19:10:01.439Z,39.00
2018-06-03T19:12:32.514Z,38.00
2018-06-03T19:15:02.749Z,37.10
2018-06-03T19:17:33.351Z,36.10
2018-06-03T19:20:04.404Z,35.30
2018-06-03T19:22:34.741Z,34.60
2018-06-03T19:25:04.934Z,34.10
2018-06-03T19:27:35.569Z,33.50
2018-06-03T19:30:06.539Z,33.10
2018-06-03T19:32:38.354Z,32.70
2018-06-03T19:35:09.937Z,32.30
2018-06-03T19:37:40.213Z,31.90
2018-06-03T19:40:12.559Z,31.40
2018-06-03T19:42:43.698Z,30.90
2018-06-03T19:45:13.898Z,30.40
2018-06-03T19:47:44.032Z,30.00
2018-06-03T19:50:14.593Z,29.70
2018-06-03T19:52:45.756Z,29.40
2018-06-03T19:55:16.325Z,29.20
2018-06-03T19:57:46.837Z,29.00
2018-06-03T20:00:17.777Z,28.70
2018-06-03T20:02:49.103Z,28.60
2018-06-03T20:05:20.283Z,28.40
2018-06-03T20:07:50.531Z,28.30
2018-06-03T20:10:20.882Z,28.10
2018-06-03T20:12:52.322Z,28.00
2018-06-03T20:15:23.128Z,27.90
2018-06-03T20:17:55.836Z,27.70
2018-06-03T20:20:26.542Z,27.60
2018-06-03T20:22:57.726Z,27.50
2018-06-03T20:25:28.047Z,27.40
2018-06-03T20:27:59.193Z,27.30
2018-06-03T20:30:30.443Z,27.20
2018-06-03T20:33:02.071Z,27.10
2018-06-03T20:35:33.270Z,27.10
2018-06-03T20:38:03.740Z,27.00
2018-06-03T20:40:33.964Z,26.90
2018-06-03T20:43:04.066Z,26.90
2018-06-03T20:45:34.517Z,26.80
2018-06-03T20:48:05.322Z,26.70
2018-06-03T20:50:35.882Z,26.70
2018-06-03T20:53:06.249Z,26.60
2018-06-03T20:55:36.801Z,26.60
2018-06-03T20:58:07.088Z,26.50
2018-06-03T21:00:37.636Z,26.40
2018-06-03T21:03:09.722Z,26.30
2018-06-03T21:05:40.026Z,26.30
2018-06-03T21:08:10.152Z,26.20
2018-06-03T21:10:40.259Z,26.10
2018-06-03T21:13:10.547Z,26.10
2018-06-03T21:15:41.915Z,26.00
2018-06-03T21:18:13.597Z,26.00
2018-06-03T21:20:43.828Z,25.90
2018-06-03T21:23:15.139Z,25.90
2018-06-03T21:25:45.647Z,25.90
2018-06-03T21:28:15.743Z,25.80
2018-06-03T21:30:46.552Z,25.80
2018-06-03T21:33:16.857Z,25.70
2018-06-03T21:35:47.169Z,25.70
2018-06-03T21:38:17.932Z,25.70
2018-06-03T21:40:49.212Z,25.60
2018-06-03T21:43:19.373Z,25.50
2018-06-03T21:45:49.756Z,25.50
2018-06-03T21:48:20.511Z,25.40
2018-06-03T21:50:50.862Z,25.40
2018-06-03T21:53:21.315Z,25.30
2018-06-03T21:55:52.538Z,25.30
2018-06-03T21:58:22.864Z,25.20
2018-06-03T22:00:53.117Z,25.20
2018-06-03T22:03:24.689Z,25.10
2018-06-03T22:05:55.756Z,25.10
2018-06-03T22:08:26.158Z,25.10
2018-06-03T22:10:56.171Z,25.00
2018-06-03T22:13:27.676Z,25.00
2018-06-03T22:15:59.031Z,24.90
2018-06-03T22:18:30.065Z,24.80
2018-06-03T22:21:00.385Z,24.80
2018-06-03T22:23:31.773Z,24.70
2018-06-03T22:26:01.822Z,24.60
2018-06-03T22:28:33.274Z,24.60
2018-06-03T22:31:04.842Z,24.50
2018-06-03T22:33:35.576Z,24.40
2018-06-03T22:36:06.743Z,24.30
2018-06-03T22:38:38.752Z,24.20
2018-06-03T22:41:09.895Z,24.10
2018-06-03T22:43:40.260Z,24.10
2018-06-03T22:46:11.043Z,24.00
2018-06-03T22:48:42.471Z,23.90
2018-06-03T22:51:15.037Z,23.80
2018-06-03T22:53:45.441Z,23.80
2018-06-03T22:56:16.434Z,23.70
2018-06-03T22:58:47.600Z,23.60
2018-06-03T23:01:20.688Z,23.50
2018-06-03T23:03:52.056Z,23.40
2018-06-03T23:06:22.517Z,23.30
2018-06-03T23:08:53.182Z,23.30
2018-06-03T23:11:24.341Z,23.20
2018-06-03T23:13:55.539Z,23.20
2018-06-03T23:16:26.161Z,23.20
2018-06-03T23:18:56.772Z,23.20
2018-06-03T23:21:26.992Z,23.20
2018-06-03T23:23:57.479Z,23.20
2018-06-03T23:26:27.827Z,23.20
2018-06-03T23:28:58.721Z,23.20
2018-06-03T23:31:29.233Z,23.20
2018-06-03T23:33:59.445Z,23.20
2018-06-03T23:36:29.896Z,23.20
2018-06-03T23:39:00.991Z,23.30
2018-06-03T23:41:31.159Z,23.30
2018-06-03T23:44:01.966Z,23.20
2018-06-03T23:46:33.085Z,23.30
2018-06-03T23:49:03.229Z,23.30
2018-06-03T23:51:33.732Z,23.30
2018-06-03T23:54:04.533Z,23.30
2018-06-03T23:56:34.871Z,23.30
2018-06-03T23:59:05.092Z,23.30
